Time;durP1;ratioP1;P1;durP2;ratioP2;P2;SDS_P1;SDS_P2;PMS_P1;PMS_P2;Temp;Humidity;BMP_temperature;BMP_pressure;BME280_temperature;BME280_humidity;BME280_pressure;Samples;Min_cycle;Max_cycle;Signal;HPM_P1;HPM_P2
2022/10/14 04:22:50;;;;;;;9.25;4.82;;;;;;;12.27;100.00;100218.59;5089142;28;20691;-61
2022/10/14 04:25:18;;;;;;;9.82;4.25;;;;;;;12.21;100.00;100218.31;5087752;28;20074;-62
2022/10/14 04:27:48;;;;;;;11.15;4.45;;;;;;;12.22;100.00;100229.81;5087719;28;20043;-62
2022/10/14 04:30:13;;;;;;;8.20;4.30;;;;;;;12.18;100.00;100233.88;5089002;28;20048;-62
2022/10/14 04:32:47;;;;;;;9.35;4.82;;;;;;;12.18;100.00;100229.34;5103779;22;20032;-68
2022/10/14 04:35:14;;;;;;;9.32;5.03;;;;;;;12.20;100.00;100219.34;5054421;28;20496;-67
2022/10/14 04:37:43;;;;;;;7.30;3.80;;;;;;;12.12;100.00;100224.75;5070895;28;20032;-67
2022/10/14 04:40:19;;;;;;;14.07;5.38;;;;;;;12.17;100.00;100219.69;5087519;28;20040;-66
2022/10/14 04:42:45;;;;;;;8.85;4.13;;;;;;;12.09;100.00;100222.47;5070682;28;20024;-67
2022/10/14 04:45:20;;;;;;;10.05;4.63;;;;;;;12.06;100.00;100216.63;5071006;28;20312;-67
2022/10/14 04:47:52;;;;;;;7.70;3.75;;;;;;;12.09;100.00;100214.44;5070571;28;20135;-67
2022/10/14 04:50:21;;;;;;;8.43;4.15;;;;;;;12.04;100.00;100214.16;5070101;28;20389;-67
2022/10/14 04:53:05;;;;;;;8.80;5.07;;;;;;;12.06;100.00;100212.16;5088910;28;20070;-67
2022/10/14 04:55:30;;;;;;;8.90;4.10;;;;;;;12.06;100.00;100204.16;5070704;28;20122;-67
2022/10/14 04:57:56;;;;;;;8.02;4.15;;;;;;;12.09;100.00;100200.28;5070424;28;20040;-67
2022/10/14 05:00:23;;;;;;;7.97;4.60;;;;;;;12.09;100.00;100189.59;5070382;28;20431;-67
2022/10/14 05:02:57;;;;;;;10.05;4.43;;;;;;;12.06;100.00;100190.81;5070389;28;20056;-67
2022/10/14 05:05:28;;;;;;;7.55;4.18;;;;;;;12.06;100.00;100185.47;5070439;28;20036;-67
2022/10/14 05:07:57;;;;;;;;;;;;;;;12.06;100.00;100180.13;5071029;28;20401;-67
2022/10/14 05:10:28;;;;;;;7.43;3.70;;;;;;;11.92;100.00;100181.75;5069993;28;19928;-68
2022/10/14 05:12:54;;;;;;;6.78;3.78;;;;;;;11.93;100.00;100185.25;5086685;28;20039;-67
2022/10/14 05:15:21;;;;;;;7.57;4.30;;;;;;;11.91;100.00;100180.09;5070067;28;20063;-67
2022/10/14 05:18:03;;;;;;;11.63;4.03;;;;;;;11.90;100.00;100174.94;5069913;28;20032;-67
2022/10/14 05:20:57;;;;;;;8.88;4.15;;;;;;;11.88;100.00;100172.47;5067169;28;20047;-67
2022/10/14 05:23:25;;;;;;;9.52;3.95;;;;;;;11.94;100.00;100170.91;5069784;28;20131;-67
2022/10/14 05:25:51;;;;;;;8.02;3.53;;;;;;;11.94;100.00;100168.25;5070021;28;20032;-67
2022/10/14 05:28:17;;;;;;;7.18;3.15;;;;;;;11.99;100.00;100157.81;5070149;28;20404;-66
2022/10/14 05:30:44;;;;;;;10.50;3.97;;;;;;;11.98;100.00;100153.50;5086384;28;20500;-67
2022/10/14 05:33:10;;;;;;;7.45;3.83;;;;;;;12.00;100.00;100151.50;5061783;28;20041;-67
2022/10/14 05:35:37;;;;;;;8.50;4.18;;;;;;;12.00;100.00;100151.50;5056397;28;20047;-67
2022/10/14 05:38:03;;;;;;;6.00;3.50;;;;;;;12.00;100.00;100143.47;5056403;28;20448;-67
2022/10/14 05:40:33;;;;;;;8.98;3.72;;;;;;;12.00;100.00;100154.16;5055977;28;20036;-67
2022/10/14 05:42:59;;;;;;;12.20;3.47;;;;;;;12.01;100.00;100153.13;5056204;28;20036;-67
2022/10/14 05:45:27;;;;;;;6.32;3.40;;;;;;;12.03;100.00;100145.75;5056278;28;20032;-67
2022/10/14 05:47:52;;;;;;;8.63;4.18;;;;;;;12.04;100.00;100144.75;5056361;28;20387;-67
2022/10/14 05:50:20;;;;;;;7.53;3.78;;;;;;;12.06;100.00;100155.22;5055801;28;20386;-67
2022/10/14 05:52:47;;;;;;;7.15;3.92;;;;;;;12.08;100.00;100155.91;5055970;28;20064;-67
2022/10/14 05:55:18;;;;;;;6.78;3.60;;;;;;;12.05;100.00;100158.91;5056092;28;20527;-67
2022/10/14 05:57:45;;;;;;;6.50;4.00;;;;;;;12.08;100.00;100155.91;5056336;28;20054;-67
2022/10/14 06:00:16;;;;;;;4.60;2.97;;;;;;;12.07;100.00;100149.72;5055583;28;20307;-67
2022/10/14 06:02:49;;;;;;;6.80;3.85;;;;;;;12.06;100.00;100157.91;5055817;28;20036;-67
2022/10/14 06:05:16;;;;;;;6.20;3.75;;;;;;;12.09;100.00;100165.56;5055873;28;20040;-66
2022/10/14 06:07:42;;;;;;;6.18;3.60;;;;;;;12.13;100.00;100161.53;5073753;28;20561;-66
2022/10/14 06:10:09;;;;;;;6.35;3.58;;;;;;;12.14;100.00;100161.31;5055593;28;20068;-67
2022/10/14 06:12:35;;;;;;;8.10;4.28;;;;;;;12.17;100.00;100166.28;5055555;28;20108;-66
2022/10/14 06:15:01;;;;;;;8.48;3.47;;;;;;;12.19;100.00;100164.28;5055555;28;20619;-66
2022/10/14 06:17:27;;;;;;;8.02;4.32;;;;;;;12.23;100.00;100156.72;5073619;28;20115;-66
2022/10/14 06:19:53;;;;;;;7.13;3.20;;;;;;;12.28;100.00;100161.50;5055433;28;20044;-68
2022/10/14 06:22:18;;;;;;;8.43;4.10;;;;;;;12.30;100.00;100159.47;5073136;28;20041;-46
2022/10/14 06:24:44;;;;;;;15.38;3.88;;;;;;;12.30;100.00;100160.28;5073364;28;20040;-46
2022/10/14 06:27:09;;;;;;;7.30;3.83;;;;;;;12.33;100.00;100165.28;5073475;28;20473;-52
2022/10/14 06:29:36;;;;;;;8.43;3.75;;;;;;;12.42;100.00;100160.63;5073442;28;20041;-48
2022/10/14 06:32:07;;;;;;;7.43;3.95;;;;;;;12.43;100.00;100165.78;5073003;28;20044;-46
2022/10/14 06:34:33;;;;;;;5.07;3.55;;;;;;;12.50;100.00;100160.53;5073196;28;20093;-52
2022/10/14 06:36:59;;;;;;;8.20;4.00;;;;;;;12.59;100.00;100167.44;5073177;28;20105;-49
2022/10/14 06:39:25;;;;;;;9.90;4.57;;;;;;;12.65;100.00;100174.69;5073355;28;20071;-46
2022/10/14 06:41:50;;;;;;;8.18;3.88;;;;;;;12.71;100.00;100167.75;5054963;28;20068;-51
2022/10/14 06:44:19;;;;;;;10.35;3.40;;;;;;;12.77;100.00;100173.16;5072160;28;20040;-52
2022/10/14 06:46:44;;;;;;;7.85;3.72;;;;;;;12.84;100.00;100164.38;5055183;28;20037;-49
2022/10/14 06:49:10;;;;;;;8.35;3.92;;;;;;;12.90;100.00;100167.13;5073031;28;20044;-48
2022/10/14 06:51:37;;;;;;;8.02;4.25;;;;;;;12.96;100.00;100154.84;5072740;28;20461;-49
2022/10/14 06:54:03;;;;;;;12.95;4.20;;;;;;;13.01;100.00;100157.78;5072742;28;20050;-52
2022/10/14 06:56:28;;;;;;;7.15;3.58;;;;;;;13.10;100.00;100153.94;5072820;28;20131;-53
2022/10/14 06:58:54;;;;;;;5.80;3.90;;;;;;;13.10;100.00;100153.94;5072806;28;20040;-48
2022/10/14 07:01:21;;;;;;;7.05;3.60;;;;;;;13.17;100.00;100152.19;5072294;28;20043;-51
2022/10/14 07:03:46;;;;;;;8.38;4.05;;;;;;;13.19;100.00;100152.00;5072613;28;20051;-49
2022/10/14 07:06:12;;;;;;;7.47;3.72;;;;;;;13.23;100.00;100150.59;5072564;28;20405;-50
2022/10/14 07:08:37;;;;;;;7.38;3.40;;;;;;;13.29;100.00;100152.50;5072510;28;20080;-52
2022/10/14 07:11:04;;;;;;;8.75;4.25;;;;;;;13.34;100.00;100146.59;5070946;28;20040;-49
2022/10/14 07:13:30;;;;;;;6.25;3.72;;;;;;;13.36;100.00;100144.53;5072421;28;20040;-52
2022/10/14 07:15:55;;;;;;;11.45;3.78;;;;;;;13.47;100.00;100147.50;5072522;28;20042;-49
2022/10/14 07:18:21;;;;;;;7.57;3.78;;;;;;;13.50;100.00;100143.63;5072607;28;20120;-50
2022/10/14 07:20:46;;;;;;;6.53;3.42;;;;;;;13.59;100.00;100153.16;5072021;28;20094;-63
2022/10/14 07:23:12;;;;;;;5.63;3.63;;;;;;;13.61;100.00;100143.06;5072320;28;20044;-63
2022/10/14 07:25:37;;;;;;;6.55;3.67;;;;;;;13.68;100.00;100141.28;5072295;28;20043;-63
2022/10/14 07:28:03;;;;;;;5.85;3.25;;;;;;;13.72;100.00;100145.22;5072408;28;20377;-63
2022/10/14 07:30:28;;;;;;;9.13;3.63;;;;;;;13.75;100.00;100141.31;5072097;28;20048;-63
2022/10/14 07:32:54;;;;;;;6.95;3.60;;;;;;;13.80;100.00;100146.91;5071911;28;20390;-62
2022/10/14 07:35:19;;;;;;;5.80;3.75;;;;;;;13.82;100.00;100145.72;5072089;28;20032;-63
2022/10/14 07:37:45;;;;;;;6.97;3.53;;;;;;;13.89;100.00;100152.94;5072194;28;20440;-62
2022/10/14 07:40:12;;;;;;;7.53;3.83;;;;;;;13.91;100.00;100151.72;5071741;28;20036;-62
2022/10/14 07:42:37;;;;;;;7.82;3.70;;;;;;;13.96;100.00;100156.50;5071896;28;20028;-63
2022/10/14 07:45:05;;;;;;;5.70;3.70;;;;;;;13.98;100.00;100157.13;5071981;28;20433;-62
2022/10/14 07:47:32;;;;;;;7.72;3.15;;;;;;;14.03;100.00;100162.72;5072040;28;20044;-63
2022/10/14 07:49:59;;;;;;;3.93;2.73;;;;;;;14.06;100.00;100165.81;5071683;28;20041;-64
2022/10/14 07:52:24;;;;;;;3.77;2.80;;;;;;;14.09;100.00;100169.97;5071691;28;20338;-62
2022/10/14 07:54:50;;;;;;;8.18;3.70;;;;;;;14.12;100.00;100165.03;5071592;28;20036;-63
2022/10/14 07:57:15;;;;;;;7.57;3.63;;;;;;;14.18;100.00;100170.63;5071530;28;20036;-61
2022/10/14 07:59:41;;;;;;;4.63;3.03;;;;;;;14.18;100.00;100166.09;5071676;28;20044;-64
2022/10/14 08:02:06;;;;;;;5.57;3.50;;;;;;;14.24;100.00;100170.66;5053470;28;20385;-62
2022/10/14 08:04:32;;;;;;;7.43;3.47;;;;;;;14.28;100.00;100174.59;5071566;28;20044;-63
2022/10/14 08:06:57;;;;;;;6.97;3.55;;;;;;;14.31;100.00;100171.50;5071735;28;20062;-62
2022/10/14 08:09:23;;;;;;;6.32;3.90;;;;;;;14.36;100.00;100169.06;5071553;28;20430;-62
2022/10/14 08:11:48;;;;;;;6.05;3.03;;;;;;;14.43;100.00;100168.25;5071417;28;20036;-63
2022/10/14 08:14:14;;;;;;;5.85;2.97;;;;;;;14.47;100.00;100162.31;5071443;28;20071;-62
2022/10/14 08:16:39;;;;;;;7.35;2.85;;;;;;;14.56;100.00;100162.97;5071593;28;20130;-63
2022/10/14 08:19:10;;;;;;;6.78;3.30;;;;;;;14.62;100.00;100159.50;5071560;28;20040;-63
2022/10/14 08:21:35;;;;;;;6.38;3.67;;;;;;;14.66;100.00;100156.19;5071134;28;20035;-63
2022/10/14 08:24:01;;;;;;;5.00;2.70;;;;;;;14.72;100.00;100165.28;5071321;28;20037;-63
2022/10/14 08:26:28;;;;;;;5.53;3.30;;;;;;;14.80;100.00;100158.91;5071584;28;20033;-62
2022/10/14 08:28:54;;;;;;;12.63;3.25;;;;;;;14.90;100.00;100154.81;5071420;28;20060;-61
2022/10/14 08:31:20;;;;;;;6.90;3.22;;;;;;;14.92;100.00;100162.66;5071329;28;20480;-62
2022/10/14 08:33:46;;;;;;;4.57;2.90;;;;;;;14.98;100.00;100164.53;5071297;28;20033;-61
2022/10/14 08:36:12;;;;;;;4.70;3.00;;;;;;;15.04;100.00;100163.69;5071647;28;20036;-62
2022/10/14 08:38:37;;;;;;;5.82;3.47;;;;;;;15.07;100.00;100162.50;5071669;28;20032;-62
2022/10/14 08:41:11;;;;;;;4.28;3.05;;;;;;;15.13;100.00;100172.41;5071210;28;20029;-62
2022/10/14 08:44:12;;;;;;;5.05;3.03;;;;;;;15.18;100.00;100161.88;5070301;28;20569;-63
2022/10/14 08:46:41;;;;;;;8.32;2.97;;;;;;;15.27;100.00;100157.97;5021557;28;20064;-62
2022/10/14 08:49:22;;;;;;;5.35;3.38;;;;;;;15.32;100.00;100160.00;5043546;28;20052;-62
2022/10/14 08:51:55;;;;;;;6.35;2.88;;;;;;;15.38;100.00;100157.31;5050622;28;20028;-60
2022/10/14 08:54:38;;;;;;;5.20;3.30;;;;;;;15.43;100.00;100160.22;5050667;28;20033;-62
2022/10/14 08:57:10;;;;;;;7.38;3.85;;;;;;;15.48;100.00;100154.25;5051134;28;20049;-61
2022/10/14 08:59:40;;;;;;;6.28;3.20;;;;;;;15.48;100.00;100151.56;5050955;28;20025;-62
2022/10/14 09:02:36;;;;;;;6.35;3.33;;;;;;;15.54;100.00;100158.78;5053898;28;20050;-61
2022/10/14 09:05:03;;;;;;;6.47;3.55;;;;;;;15.56;100.00;100156.72;5030099;28;20049;-60
2022/10/14 09:07:31;;;;;;;6.90;3.58;;;;;;;15.58;100.00;100157.31;5071413;28;20044;-60
2022/10/14 09:10:05;;;;;;;5.07;3.15;;;;;;;15.61;100.00;100153.41;5074729;28;20036;-62
2022/10/14 09:12:34;;;;;;;4.97;2.50;;;;;;;15.54;100.00;100149.91;5074690;28;20555;-62
2022/10/14 09:15:06;;;;;;;8.23;3.08;;;;;;;15.55;100.00;100152.38;5074803;28;20338;-62
2022/10/14 09:17:40;;;;;;;4.75;2.70;;;;;;;15.57;100.00;100149.47;5074780;28;20075;-62
2022/10/14 09:20:20;;;;;;;7.50;2.70;;;;;;;15.60;100.00;100149.06;5074539;28;20047;-63
2022/10/14 09:23:14;;;;;;;4.40;2.80;;;;;;;15.60;100.00;100146.38;5074644;28;20047;-62
2022/10/14 09:26:06;;;;;;;3.80;2.67;;;;;;;15.66;100.00;100141.03;5074579;28;20083;-62
2022/10/14 09:28:37;;;;;;;5.28;2.92;;;;;;;15.76;99.12;100137.09;5066214;28;20079;-63
2022/10/14 09:31:04;;;;;;;6.85;2.80;;;;;;;15.85;98.39;100141.22;5074188;28;20024;-62
2022/10/14 09:33:29;;;;;;;4.88;2.95;;;;;;;15.89;96.68;100126.31;5074410;28;20230;-62
2022/10/14 09:35:56;;;;;;;3.70;2.08;;;;;;;15.95;96.28;100128.16;5074449;28;20119;-62
2022/10/14 09:38:23;;;;;;;4.40;2.60;;;;;;;16.08;94.30;100129.97;5074383;28;20043;-61
2022/10/14 09:40:53;;;;;;;3.92;2.42;;;;;;;16.23;93.99;100127.84;5074052;28;20122;-62
2022/10/14 09:43:22;;;;;;;3.35;2.42;;;;;;;16.29;93.86;100113.56;5074495;28;20150;-62
2022/10/14 09:46:07;;;;;;;4.25;2.58;;;;;;;16.39;94.55;100124.69;5074347;28;20482;-62
2022/10/14 09:48:43;;;;;;;3.95;2.90;;;;;;;16.44;93.91;100114.13;5074361;28;20039;-62
2022/10/14 09:51:41;;;;;;;4.32;2.90;;;;;;;16.50;94.34;100110.59;5074047;28;20486;-63
2022/10/14 09:54:25;;;;;;;3.88;2.72;;;;;;;16.54;93.07;100114.47;5018999;28;20094;-64
2022/10/14 09:56:58;;;;;;;4.90;2.72;;;;;;;16.63;92.35;100106.19;5074041;28;20115;-62
2022/10/14 09:59:24;;;;;;;3.60;2.60;;;;;;;16.66;90.30;100105.72;5056219;28;20516;-62
2022/10/14 10:01:53;;;;;;;3.42;2.35;;;;;;;16.78;90.63;100109.41;5073539;28;20029;-62
2022/10/14 10:04:30;;;;;;;5.00;2.38;;;;;;;16.89;88.37;100110.56;5073832;28;20041;-62
2022/10/14 10:06:58;;;;;;;2.88;2.15;;;;;;;16.99;87.72;100105.53;5073878;28;20123;-63
2022/10/14 10:09:24;;;;;;;6.13;3.05;;;;;;;16.98;87.84;100104.72;5055827;28;20060;-61
2022/10/14 10:11:49;;;;;;;5.50;2.15;;;;;;;17.01;88.52;100104.25;5073376;28;20380;-62
2022/10/14 10:14:22;;;;;;;5.25;2.70;;;;;;;17.02;89.34;100111.31;5073496;28;20041;-62
2022/10/14 10:16:50;;;;;;;4.18;2.92;;;;;;;17.03;89.78;100109.44;5073742;28;20085;-62
2022/10/14 10:19:18;;;;;;;;;;;;;;;16.93;91.01;100099.16;5074002;28;20097;-62
2022/10/14 10:21:43;;;;;;;7.65;2.58;;;;;;;16.83;92.19;100098.00;5073368;28;19919;-61
2022/10/14 10:24:20;;;;;;;3.50;2.05;;;;;;;16.65;94.00;100104.09;5055570;28;20040;-61
2022/10/14 10:26:47;;;;;;;5.20;2.70;;;;;;;16.46;99.64;100100.47;5073486;28;20033;-60
2022/10/14 10:29:33;;;;;;;6.43;2.13;;;;;;;16.18;100.00;100096.25;5073453;28;20056;-61
2022/10/14 10:32:27;;;;;;;5.50;2.65;;;;;;;15.96;100.00;100090.34;5073239;28;20433;-62
2022/10/14 10:35:05;;;;;;;3.45;2.35;;;;;;;15.76;100.00;100089.56;5097506;22;20041;-67
2022/10/14 10:37:43;;;;;;;4.15;2.35;;;;;;;15.65;100.00;100079.50;5073093;28;20451;-66
2022/10/14 10:40:26;;;;;;;4.05;2.30;;;;;;;15.57;100.00;100074.31;5073024;28;20041;-65
2022/10/14 10:43:07;;;;;;;2.88;1.98;;;;;;;15.65;100.00;100066.91;5072182;28;20614;-66
2022/10/14 10:45:40;;;;;;;3.38;2.30;;;;;;;15.69;100.00;100067.28;5050319;28;20485;-65
2022/10/14 10:48:17;;;;;;;6.55;2.53;;;;;;;15.65;100.00;100061.53;5052699;28;20373;-65
2022/10/14 10:51:01;;;;;;;4.40;2.17;;;;;;;15.72;100.00;100056.97;5051372;28;20108;-67
2022/10/14 10:53:45;;;;;;;2.78;1.95;;;;;;;15.73;100.00;100047.88;5052442;28;20444;-68
2022/10/14 10:56:21;;;;;;;5.45;2.80;;;;;;;15.75;100.00;100047.66;5052019;28;20407;-68
2022/10/14 10:59:15;;;;;;;3.40;2.30;;;;;;;15.82;100.00;100051.13;5052488;28;20036;-67
2022/10/14 11:01:54;;;;;;;4.35;2.50;;;;;;;15.90;100.00;100039.31;5051377;28;20517;-68
2022/10/14 11:04:29;;;;;;;5.13;2.30;;;;;;;15.92;100.00;100030.03;5051651;28;20040;-64
2022/10/14 11:13:11;;;;;;;8.43;3.35;;;;;;;16.27;100.00;100022.41;5042532;28;20037;-67
2022/10/14 11:15:58;;;;;;;5.47;2.38;;;;;;;16.41;100.00;100023.16;5042445;28;20037;-67
2022/10/14 11:18:55;;;;;;;4.45;2.35;;;;;;;16.70;100.00;100015.56;5042595;28;20065;-68
2022/10/14 11:21:58;;;;;;;4.03;2.35;;;;;;;17.05;100.00;100018.56;5042447;28;20033;-68
2022/10/14 11:24:30;;;;;;;3.88;2.35;;;;;;;17.22;100.00;100010.75;5043692;28;20448;-67
2022/10/14 11:27:04;;;;;;;4.13;2.35;;;;;;;17.34;100.00;100007.09;5045331;28;20072;-51
2022/10/14 11:29:57;;;;;;;3.92;2.35;;;;;;;17.54;100.00;100003.34;5048115;28;20063;-67
2022/10/14 11:32:26;;;;;;;7.45;6.75;;;;;;;17.64;100.00;100000.97;5040815;28;20397;-65
2022/10/14 11:35:21;;;;;;;4.40;3.65;;;;;;;17.83;100.00;100002.63;5039721;28;20021;-67
2022/10/14 11:38:14;;;;;;;7.32;2.78;;;;;;;18.27;100.00;99997.09;5042237;28;20121;-66
2022/10/14 11:41:08;;;;;;;3.97;2.20;;;;;;;18.30;98.11;99991.22;5025588;28;20116;-64
2022/10/14 11:43:57;;;;;;;4.40;2.35;;;;;;;18.11;95.83;99985.88;5056526;28;20397;-64
2022/10/14 11:46:28;;;;;;;3.45;1.90;;;;;;;18.12;95.29;99986.69;5044544;28;20029;-64
2022/10/14 11:48:59;;;;;;;5.03;3.40;;;;;;;18.04;98.49;99990.53;5027598;28;20037;-66
2022/10/14 11:51:43;;;;;;;5.22;3.40;;;;;;;18.10;98.13;99980.72;5046081;28;20033;-65
2022/10/14 11:54:15;;;;;;;7.43;2.30;;;;;;;18.14;95.51;99979.22;5046676;28;20504;-66
2022/10/14 11:56:51;;;;;;;3.10;2.20;;;;;;;18.14;96.29;99976.53;5045330;28;20028;-66
2022/10/14 11:59:36;;;;;;;2.25;1.52;;;;;;;18.08;97.64;99975.56;5058861;28;20033;-67
2022/10/14 12:02:24;;;;;;;3.70;1.75;;;;;;;18.06;97.69;99976.81;5042087;28;20078;-66
2022/10/14 12:05:08;;;;;;;3.83;1.75;;;;;;;17.97;95.21;99976.34;5050599;28;20385;-67
2022/10/14 12:07:40;;;;;;;2.90;1.85;;;;;;;17.92;93.77;99973.50;5047946;28;20029;-67
2022/10/14 12:10:19;;;;;;;2.30;1.50;;;;;;;17.87;97.17;99967.97;5041253;28;20037;-67
2022/10/14 12:12:45;;;;;;;5.28;2.00;;;;;;;17.84;96.54;99966.56;5041109;28;20033;-67
2022/10/14 12:15:22;;;;;;;5.63;1.70;;;;;;;17.80;94.51;99962.69;5046753;28;20036;-66
2022/10/14 12:17:59;;;;;;;4.90;1.65;;;;;;;17.68;95.86;99967.16;5029352;28;20120;-66
2022/10/14 12:20:39;;;;;;;1.52;1.20;;;;;;;17.71;95.01;99960.47;5044948;28;20122;-66
2022/10/14 12:23:10;;;;;;;2.60;1.75;;;;;;;17.61;96.66;99956.47;5042651;28;20033;-64
2022/10/14 12:25:48;;;;;;;3.80;1.67;;;;;;;17.61;94.19;99969.94;5047676;28;20064;-67
2022/10/14 12:28:17;;;;;;;5.40;2.03;;;;;;;17.64;96.08;99964.06;5031752;28;20024;-66
2022/10/14 12:30:43;;;;;;;3.47;1.40;;;;;;;17.63;97.50;99954.34;5041844;28;20041;-67
2022/10/14 12:33:11;;;;;;;2.85;1.67;;;;;;;17.64;97.37;99956.00;5045924;28;20044;-66
2022/10/14 12:35:58;;;;;;;2.45;1.70;;;;;;;17.67;99.48;99957.44;5041901;28;20035;-67
2022/10/14 12:38:25;;;;;;;3.60;2.08;;;;;;;17.62;100.00;99949.22;5042031;28;20112;-66
2022/10/14 12:40:51;;;;;;;7.00;1.90;;;;;;;17.60;98.45;99946.75;5041306;28;20033;-67
2022/10/14 12:43:28;;;;;;;1.92;1.50;;;;;;;17.61;97.65;99952.94;5041333;28;20029;-67
2022/10/14 12:46:23;;;;;;;2.55;1.45;;;;;;;17.59;97.04;99950.47;5060566;28;20034;-65
2022/10/14 12:48:50;;;;;;;4.93;1.80;;;;;;;17.59;97.85;99944.25;5040624;28;20401;-67
2022/10/14 12:51:20;;;;;;;3.70;1.85;;;;;;;17.61;98.27;99944.88;5034918;28;20119;-66
2022/10/14 12:54:12;;;;;;;4.35;1.95;;;;;;;17.69;97.96;99939.16;5036602;28;20116;-68
2022/10/14 12:56:42;;;;;;;2.50;1.55;;;;;;;17.78;95.58;99948.59;5052684;28;20033;-67
2022/10/14 12:59:36;;;;;;;4.57;1.67;;;;;;;17.86;96.02;99947.47;5056436;28;20048;-67
2022/10/14 13:02:22;;;;;;;5.65;2.03;;;;;;;17.88;93.78;99940.00;5053960;28;20134;-67
2022/10/14 13:04:53;;;;;;;2.35;1.30;;;;;;;17.91;91.02;99942.22;5053824;28;20123;-67
2022/10/14 13:07:24;;;;;;;2.67;1.70;;;;;;;17.95;91.28;99943.41;5054880;28;20041;-66
2022/10/14 13:09:57;;;;;;;3.17;1.40;;;;;;;17.89;90.32;99947.84;5054713;28;20669;-64
2022/10/14 13:12:25;;;;;;;2.05;1.48;;;;;;;17.90;90.46;99951.34;5053912;28;20041;-64
2022/10/14 13:15:03;;;;;;;3.35;1.70;;;;;;;17.84;90.19;99958.47;5054467;28;20052;-65
2022/10/14 13:17:49;;;;;;;1.83;1.23;;;;;;;17.74;90.04;99954.69;5054496;28;20059;-66
2022/10/14 13:20:32;;;;;;;1.83;1.27;;;;;;;17.70;90.14;99956.97;5053365;28;20063;-65
2022/10/14 13:23:30;;;;;;;1.73;0.95;;;;;;;17.68;90.66;99958.25;5054350;28;20037;-64
2022/10/14 13:26:17;;;;;;;2.20;1.23;;;;;;;17.54;92.36;99955.72;5012068;28;20561;-65
2022/10/14 13:29:06;;;;;;;2.30;1.30;;;;;;;17.45;93.84;99956.25;5034449;28;20547;-66
2022/10/14 13:31:37;;;;;;;1.50;1.08;;;;;;;17.32;94.98;99949.13;5033522;28;20120;-65
2022/10/14 13:34:19;;;;;;;4.95;1.67;;;;;;;17.30;97.02;99951.25;5034130;28;20068;-66
2022/10/14 13:37:16;;;;;;;3.10;1.85;;;;;;;17.17;100.00;99952.22;5049534;28;20079;-65
2022/10/14 13:39:42;;;;;;;4.13;1.58;;;;;;;16.92;100.00;99951.41;5013240;28;20052;-65
2022/10/14 13:42:15;;;;;;;3.65;1.50;;;;;;;16.64;100.00;99939.22;5033166;28;20128;-65
2022/10/14 13:44:42;;;;;;;2.80;1.52;;;;;;;16.51;100.00;99945.53;5034037;28;20453;-65
2022/10/14 13:47:12;;;;;;;1.97;1.27;;;;;;;16.36;100.00;99945.03;5041802;28;20037;-65
2022/10/14 13:49:39;;;;;;;2.15;1.10;;;;;;;16.25;100.00;99937.69;5052260;28;20048;-65
2022/10/14 13:52:12;;;;;;;2.75;1.73;;;;;;;16.14;100.00;99935.69;5052877;28;20730;-64
2022/10/14 13:54:38;;;;;;;3.42;1.63;;;;;;;16.05;100.00;99928.94;5053051;28;20511;-65
2022/10/14 13:57:12;;;;;;;2.45;1.75;;;;;;;15.97;100.00;99925.47;5053106;28;20045;-65
2022/10/14 13:59:43;;;;;;;2.20;1.60;;;;;;;15.97;100.00;99922.78;5053577;28;20112;-65
2022/10/14 14:02:15;;;;;;;2.70;1.98;;;;;;;15.94;100.00;99922.38;5046371;28;20033;-65
2022/10/14 14:04:47;;;;;;;3.08;1.80;;;;;;;15.93;100.00;99924.25;5044668;28;20384;-65
2022/10/14 14:07:18;;;;;;;3.47;1.63;;;;;;;15.92;100.00;99924.47;5045681;28;20037;-65
2022/10/14 14:09:52;;;;;;;4.75;2.22;;;;;;;15.87;100.00;99913.53;5053445;28;20073;-65
2022/10/14 14:12:20;;;;;;;6.15;2.80;;;;;;;15.87;100.00;99918.91;5052879;28;20076;-66
2022/10/14 14:14:47;;;;;;;3.50;1.95;;;;;;;15.82;100.00;99916.84;5053163;28;20040;-65
2022/10/14 14:17:23;;;;;;;3.38;2.05;;;;;;;15.84;100.00;99916.63;5035194;28;20044;-65
2022/10/14 14:19:49;;;;;;;4.00;2.20;;;;;;;15.81;100.00;99912.53;5053238;28;20041;-65
2022/10/14 14:22:20;;;;;;;2.83;2.05;;;;;;;15.78;100.00;99912.97;5052363;28;20146;-65
2022/10/14 14:24:47;;;;;;;5.75;2.70;;;;;;;15.82;100.00;99906.13;5052884;28;20601;-65
2022/10/14 14:27:15;;;;;;;4.55;2.20;;;;;;;15.81;100.00;99906.34;5053148;28;20037;-63
2022/10/14 14:29:43;;;;;;;3.28;2.03;;;;;;;15.87;100.00;99905.47;5053032;28;20037;-63
2022/10/14 14:32:16;;;;;;;;;;;;;;;15.87;100.00;99900.09;5052530;28;20041;-64
2022/10/14 14:34:45;;;;;;;6.15;3.00;;;;;;;15.93;100.00;99901.94;5034820;28;19920;-64
2022/10/14 14:37:17;;;;;;;4.22;2.35;;;;;;;15.94;100.00;99899.03;5052981;28;20120;-63
2022/10/14 14:39:54;;;;;;;5.35;2.95;;;;;;;15.96;100.00;99907.69;5035271;28;20032;-64
2022/10/14 14:42:21;;;;;;;5.50;2.20;;;;;;;15.99;100.00;99901.88;5052489;28;20056;-63
2022/10/14 14:44:47;;;;;;;11.15;3.25;;;;;;;16.00;100.00;99906.22;5052854;28;20081;-64
2022/10/14 14:47:13;;;;;;;7.13;2.67;;;;;;;16.05;100.00;99910.94;5052772;28;20041;-66
2022/10/14 14:49:39;;;;;;;5.15;2.90;;;;;;;16.02;100.00;99904.13;5052837;28;20378;-65
2022/10/14 14:52:05;;;;;;;3.92;2.45;;;;;;;16.04;100.00;99903.94;5051841;28;20539;-65
2022/10/14 14:54:30;;;;;;;5.10;2.60;;;;;;;16.06;100.00;99896.47;5052514;28;20044;-65
2022/10/14 14:56:59;;;;;;;7.13;3.13;;;;;;;16.05;100.00;99892.16;5052617;28;20037;-65
2022/10/14 14:59:34;;;;;;;5.43;2.85;;;;;;;16.10;100.00;99886.91;5052554;28;20434;-66
2022/10/14 15:02:00;;;;;;;5.05;2.58;;;;;;;16.13;100.00;99891.88;5051523;28;20056;-66
2022/10/14 15:04:31;;;;;;;3.92;2.63;;;;;;;16.20;100.00;99889.94;5052381;28;20031;-66
2022/10/14 15:06:59;;;;;;;6.88;2.72;;;;;;;16.19;100.00;99877.56;5051608;28;20035;-67
2022/10/14 15:09:43;;;;;;;4.88;2.30;;;;;;;16.26;100.00;99870.28;5052462;28;20068;-65
2022/10/14 15:12:40;;;;;;;5.43;2.38;;;;;;;16.27;100.00;99865.72;5051501;28;20056;-66
2022/10/14 15:15:24;;;;;;;3.10;2.05;;;;;;;16.31;100.00;99860.75;5040249;28;20124;-65
2022/10/14 15:18:12;;;;;;;3.85;2.20;;;;;;;16.36;100.00;99866.25;5052301;28;20045;-64
2022/10/14 15:20:38;;;;;;;6.20;2.55;;;;;;;16.37;100.00;99854.50;5051431;28;20037;-66
2022/10/14 15:23:57;;;;;;;5.35;2.53;;;;;;;16.36;100.00;99855.50;5052109;28;20033;-65
2022/10/14 15:26:34;;;;;;;5.35;2.38;;;;;;;16.38;100.00;99851.56;5052121;28;20685;-65
2022/10/14 15:29:06;;;;;;;3.78;2.30;;;;;;;16.39;100.00;99847.84;5051990;28;20147;-66
2022/10/14 15:31:33;;;;;;;4.45;2.45;;;;;;;16.40;100.00;99845.97;5051066;28;20056;-65
2022/10/14 15:33:59;;;;;;;2.20;1.60;;;;;;;16.40;100.00;99845.97;5051571;28;20060;-67
2022/10/14 15:36:28;;;;;;;3.17;1.92;;;;;;;16.37;100.00;99844.56;5051821;28;20063;-66
2022/10/14 15:38:55;;;;;;;2.40;1.48;;;;;;;16.38;100.00;99838.13;5051819;28;20040;-65
2022/10/14 15:41:27;;;;;;;7.68;1.98;;;;;;;16.36;100.00;99836.69;5050988;28;20032;-66
2022/10/14 15:43:52;;;;;;;3.13;1.45;;;;;;;16.33;100.00;99840.66;5051638;28;20036;-65
2022/10/14 15:49:08;;;;;;;2.22;1.60;;;;;;;16.36;100.00;99844.75;5051585;28;20033;-66
2022/10/14 15:51:34;;;;;;;4.90;1.67;;;;;;;16.33;100.00;99842.53;5050953;28;20125;-67
2022/10/14 15:53:59;;;;;;;2.30;1.25;;;;;;;16.26;100.00;99848.78;5051424;28;20484;-66
2022/10/14 15:56:25;;;;;;;1.85;1.15;;;;;;;16.23;100.00;99843.81;5051591;28;20055;-66
2022/10/14 15:58:50;;;;;;;3.13;1.42;;;;;;;16.20;100.00;99838.91;5051442;28;20072;-64
2022/10/14 16:01:22;;;;;;;1.85;1.23;;;;;;;16.12;100.00;99838.38;5050736;28;20041;-65
2022/10/14 16:03:50;;;;;;;2.17;1.33;;;;;;;16.08;100.00;99826.41;5051129;28;20040;-65
2022/10/14 16:06:16;;;;;;;1.52;1.15;;;;;;;16.05;100.00;99830.34;5051394;28;20098;-67
2022/10/14 16:08:42;;;;;;;1.48;1.27;;;;;;;16.02;100.00;99828.91;5051227;28;20082;-66
2022/10/14 16:11:40;;;;;;;2.63;1.42;;;;;;;16.01;100.00;99823.75;5050497;28;20033;-66
2022/10/14 16:14:08;;;;;;;3.58;1.05;;;;;;;16.01;100.00;99813.84;5018062;28;20126;-66
2022/10/14 16:16:39;;;;;;;2.35;1.50;;;;;;;15.98;100.00;99808.09;5051279;28;20041;-66